Portada
METAR-TAF:

METAR-TAF

Aeroports :

Ponta Porã, Mato Grosso do Sul, Brasil

latitud: 22-33S, longitud: 055-42W, altitud: 657 m

Observació

L'informe es va fer fa 6 hores i 20 minuts, a les 21:00 UTC
Vent 10 kt del Nord/Nord-Est
Temperatura 28°C
Humitat 48%
Pressió 1011 hPa
Visibilitat 10 km o més
Escasses núvols a una alçada de 2500 ft
Núvols disperses a una alçada de 9000 ft

METAR: SBPP 172100Z 02010KT 9999 FEW025 SCT090 28/16 Q1011

Hora: 23:20 (03:20 UTC)

Pronòstic

L'informe es va fer fa 5 hores i 20 minuts, a les 22:00 UTC
Pronòstic vàlid del 18 a les 00 UTC al 18 a les 24 UTC
Vent 5 kt del Nord
Visibilitat 10 km o més
sense núvols per sota de 1500 mi sense presència de cumulonimbus.
Evolucionant progressivament
l' 18 a les 13 UTC al 18 a les 15 UTC
Vent 12 kt del Nord
Evolucionant progressivament
l' 18 a les 19 UTC al 18 a les 21 UTC
Vent 8 kt del Nord/Nord-Est

TAF: SBPP 172200Z 1800/1824 36005KT CAVOK TN18/1808Z TX29/1818Z BECMG 1813/1815 35012KT BECMG 1819/1821 02008KT RMK PGL

Observacions i pronòstics meteorològics de més de 4000 aeroports (METAR i TAF).

Les estacions disponibles són els punts grocs i vermells al mapa.

Posi el ratolí al punt desitjat per veure el nom de l'estació.

Feu clic per veure les observacions i els pronòstics meteorològics.

Per canviar el mapa: feu clic els botons verds amb una creu de color negre per apropar; al botó verd amb un guió per allunyar la imatge; o en les fletxes verdes per a mapes adjacents.


METAR-TAF: